^^
Saratoga-Weather Station Historical Data
Daily Summary for January 20, 2021 Units:  Metric    English   Both
Daily Weekly Monthly Yearly Custom
  High: Low: Average:
Temperature: 18.2 °C 16.3 °C 17 °C
Dew Point: 13.4 °C 12.8 °C 13.1 °C
Humidity: 81% 73% 78%
Wind Speed: 3.2km/h 0km/h 0.8km/h
Wind Gust: 4.8km/h - -
Wind- - SSE
Pressure: 1018.6 hPa 1018.3 hPa -
Precipitation: 0.0 mm    
Historical Graphs
 
 
Tabular Data for January 20, 2021
Time Temperature Dew Point Pressure Wind Wind Speed Wind Gust Humidity Rainfall Rate (Hourly) solar
00:04 18.2 °C 13.3 °C 1018.6 hPa Calm     73% 0.0 mm 0 W/m2
00:09 18.1 °C 13.4 °C 1018.6 hPa Calm   1.6 km/h 74% 0.0 mm 0 W/m2
00:14 17.9 °C 13.2 °C 1018.6 hPa Calm   1.6 km/h 74% 0.0 mm 0 W/m2
00:19 17.8 °C 13.3 °C 1018.6 hPa SE 1.4 km/h 1.6 km/h 75% 0.0 mm 0 W/m2
00:24 17.7 °C 13.4 °C 1018.6 hPa SE 1.4 km/h 1.6 km/h 76% 0.0 mm 0 W/m2
00:29 17.5 °C 13.2 °C 1018.6 hPa Calm   1.6 km/h 76% 0.0 mm 0 W/m2
00:34 17.4 °C 13.3 °C 1018.6 hPa Calm   1.6 km/h 77% 0.0 mm 0 W/m2
00:39 17.3 °C 13.2 °C 1018.6 hPa Calm   1.6 km/h 77% 0.0 mm 0 W/m2
00:44 17.1 °C 13.2 °C 1018.6 hPa Calm   1.6 km/h 78% 0.0 mm 0 W/m2
00:49 16.9 °C 13 °C 1018.6 hPa SE 1.4 km/h 1.6 km/h 78% 0.0 mm 0 W/m2
00:54 16.9 °C 13 °C 1018.6 hPa SE 1.4 km/h 1.6 km/h 78% 0.0 mm 0 W/m2
00:59 16.9 °C 13 °C 1018.6 hPa ESE 1.4 km/h 1.6 km/h 78% 0.0 mm 0 W/m2
01:05 16.9 °C 13 °C 1018.6 hPa Calm     78% 0.0 mm 0 W/m2
01:10 16.9 °C 13 °C 1018.6 hPa Calm   3.2 km/h 78% 0.0 mm 0 W/m2
01:15 16.9 °C 13 °C 1018.6 hPa Calm   3.2 km/h 78% 0.0 mm 0 W/m2
01:20 16.9 °C 13.2 °C 1018.6 hPa NE 1.4 km/h 1.6 km/h 79% 0.0 mm 0 W/m2
01:25 16.9 °C 13 °C 1018.6 hPa Calm   3.2 km/h 78% 0.0 mm 0 W/m2
01:30 16.9 °C 13 °C 1018.6 hPa East 3.2 km/h 3.2 km/h 78% 0.0 mm 0 W/m2
01:35 16.9 °C 13 °C 1018.3 hPa ENE 1.4 km/h 3.2 km/h 78% 0.0 mm 0 W/m2
01:40 16.9 °C 13.2 °C 1018.6 hPa Calm   1.6 km/h 79% 0.0 mm 0 W/m2
01:45 16.8 °C 13.1 °C 1018.3 hPa Calm   1.6 km/h 79% 0.0 mm 0 W/m2
01:50 16.7 °C 13 °C 1018.3 hPa Calm   4.8 km/h 79% 0.0 mm 0 W/m2
01:55 16.6 °C 13.1 °C 1018.3 hPa WNW 1.4 km/h 3.2 km/h 80% 0.0 mm 0 W/m2
02:00 16.5 °C 13 °C 1018.3 hPa WSW 1.4 km/h 3.2 km/h 80% 0.0 mm 0 W/m2
02:05 16.4 °C 13.1 °C 1018.3 hPa ENE 3.2 km/h 4.8 km/h 81% 0.0 mm 0 W/m2
02:10 16.3 °C 12.8 °C 1018.3 hPa Calm   3.2 km/h 80% 0.0 mm 0 W/m2
02:15 16.3 °C 12.8 °C 1018.3 hPa WSW 1.4 km/h 1.6 km/h 80% 0.0 mm 0 W/m2
02:20 16.4 °C 12.9 °C 1018.3 hPa Calm   3.2 km/h 80% 0.0 mm 0 W/m2
02:25 16.3 °C 13 °C 1018.3 hPa WNW 1.4 km/h 3.2 km/h 81% 0.0 mm 0 W/m2
Juneau County Weather
Compliments of Weather Underground - 2 mb